Time;durP1;ratioP1;P1;durP2;ratioP2;P2;SDS_P1;SDS_P2;PMS_P1;PMS_P2;Temp;Humidity;BMP_temperature;BMP_pressure;BME280_temperature;BME280_humidity;BME280_pressure;Samples;Min_cycle;Max_cycle;Signal;HPM_P1;HPM_P2
2021/10/07 00:00:45;;;;;;;17.20;5.60;;;;;;;1.81;66.60;101188.64;1783722;80;20880;-78
2021/10/07 00:03:12;;;;;;;20.37;5.90;;;;;;;1.78;66.60;101185.01;1783852;80;21132;-78
2021/10/07 00:05:41;;;;;;;11.10;5.15;;;;;;;1.72;66.76;101188.09;1783857;80;20995;-78
2021/10/07 00:08:07;;;;;;;17.45;4.03;;;;;;;1.68;66.90;101190.93;1783934;79;21407;-78
2021/10/07 00:10:34;;;;;;;9.13;3.25;;;;;;;1.62;67.16;101197.21;1783914;80;20964;-78
2021/10/07 00:13:01;;;;;;;7.58;3.67;;;;;;;1.57;67.36;101197.03;1783863;80;20899;-77
2021/10/07 00:15:27;;;;;;;11.68;3.55;;;;;;;1.52;67.60;101199.55;1783832;80;21114;-77
2021/10/07 00:17:54;;;;;;;8.90;3.33;;;;;;;1.49;67.61;101199.98;1783771;80;20923;-78
2021/10/07 00:20:21;;;;;;;8.50;3.67;;;;;;;1.43;67.65;101197.61;1783793;80;20931;-79
2021/10/07 00:22:47;;;;;;;17.30;5.42;;;;;;;1.40;67.92;101202.11;1784053;80;20920;-79
2021/10/07 00:25:14;;;;;;;18.62;4.72;;;;;;;1.33;68.06;101204.84;1783950;80;20932;-79
2021/10/07 00:27:41;;;;;;;15.88;4.25;;;;;;;1.29;68.42;101202.77;1783852;80;21566;-79
2021/10/07 00:30:14;;;;;;;15.40;5.37;;;;;;;1.25;68.64;101198.84;1783773;80;20865;-79
2021/10/07 00:32:48;;;;;;;33.05;12.70;;;;;;;1.23;68.80;101200.92;1783920;80;20963;-81
2021/10/07 00:35:23;;;;;;;36.10;13.18;;;;;;;1.22;68.97;101195.20;1782130;80;20896;-80
2021/10/07 00:40:24;;;;;;;46.88;15.25;;;;;;;1.20;69.12;101198.12;1784133;80;21030;-81
2021/10/07 00:42:51;;;;;;;45.28;14.80;;;;;;;1.15;69.32;101199.32;1783719;80;20920;-80
2021/10/07 00:45:17;;;;;;;32.58;12.58;;;;;;;1.12;69.53;101198.39;1783845;80;20923;-80
2021/10/07 00:47:44;;;;;;;40.38;13.40;;;;;;;1.09;69.78;101203.40;1783840;80;20947;-80
2021/10/07 00:50:10;;;;;;;21.23;7.62;;;;;;;1.03;69.87;101197.48;1784104;80;20939;-80
2021/10/07 00:52:37;;;;;;;20.68;6.60;;;;;;;0.98;70.03;101200.83;1783834;80;21680;-78
2021/10/07 00:55:07;;;;;;;19.40;6.85;;;;;;;0.93;70.34;101201.98;1783994;80;20916;-77
2021/10/07 00:57:33;;;;;;;26.87;6.65;;;;;;;0.89;70.57;101203.45;1783772;80;20959;-82
2021/10/07 00:59:59;;;;;;;21.62;5.15;;;;;;;0.84;70.78;101205.44;1783744;80;21301;-78
2021/10/07 01:02:26;;;;;;;15.48;4.70;;;;;;;0.80;70.96;101207.42;1783542;80;20884;-77
2021/10/07 01:04:55;;;;;;;10.45;4.08;;;;;;;0.77;71.30;101214.08;1783604;80;20880;-77
2021/10/07 01:07:22;;;;;;;11.00;4.12;;;;;;;0.76;71.45;101212.94;1783479;79;21546;-77
2021/10/07 01:09:48;;;;;;;13.58;4.53;;;;;;;0.77;71.51;101211.90;1783734;80;21428;-79
2021/10/07 01:12:14;;;;;;;10.75;5.25;;;;;;;0.74;71.74;101213.15;1783433;80;20935;-78
2021/10/07 01:14:54;;;;;;;10.23;4.12;;;;;;;0.72;71.83;101212.53;1783882;80;20967;-80
2021/10/07 01:17:27;;;;;;;14.33;4.80;;;;;;;0.70;72.03;101219.19;1782367;80;21157;-81
2021/10/07 01:19:56;;;;;;;13.88;4.72;;;;;;;0.68;72.10;101215.86;1783453;80;21551;-79
2021/10/07 01:22:23;;;;;;;10.28;4.35;;;;;;;0.66;72.14;101212.84;1783499;80;20924;-79
2021/10/07 01:24:51;;;;;;;17.80;4.25;;;;;;;0.62;72.26;101212.13;1783707;80;20970;-78
2021/10/07 01:27:20;;;;;;;10.38;4.05;;;;;;;0.61;72.51;101213.16;1783591;80;21467;-78
2021/10/07 01:29:57;;;;;;;17.32;4.12;;;;;;;0.59;72.64;101212.02;1783463;80;21555;-78
2021/10/07 01:32:24;;;;;;;12.15;4.53;;;;;;;0.62;72.61;101217.53;1783471;80;20872;-78
2021/10/07 01:34:50;;;;;;;14.78;4.08;;;;;;;0.60;72.73;101219.09;1783494;80;21006;-78
2021/10/07 01:37:16;;;;;;;10.35;3.25;;;;;;;0.58;72.94;101218.47;1783443;80;21462;-78
2021/10/07 01:39:43;;;;;;;6.45;2.85;;;;;;;0.55;73.10;101220.27;1783515;80;20844;-78
2021/10/07 01:42:10;;;;;;;7.35;3.42;;;;;;;0.52;73.29;101227.45;1783798;80;22118;-78
2021/10/07 01:44:36;;;;;;;11.30;3.42;;;;;;;0.52;73.40;101236.91;1783362;80;21450;-78
2021/10/07 01:47:03;;;;;;;8.73;2.98;;;;;;;0.50;73.53;101227.34;1783731;80;20984;-78
2021/10/07 01:49:30;;;;;;;15.45;3.55;;;;;;;0.48;73.68;101223.50;1783502;80;20971;-78
2021/10/07 01:51:56;;;;;;;5.87;2.55;;;;;;;0.49;73.92;101228.38;1783916;80;20848;-78
2021/10/07 01:54:22;;;;;;;6.05;3.22;;;;;;;0.50;73.76;101228.17;1783721;80;21531;-78
2021/10/07 01:56:49;;;;;;;7.47;2.60;;;;;;;0.50;73.76;101228.17;1784003;80;20880;-77
2021/10/07 01:59:16;;;;;;;8.38;2.87;;;;;;;0.48;73.87;101232.12;1783638;80;20915;-79
2021/10/07 02:01:42;;;;;;;10.10;3.80;;;;;;;0.48;74.07;101226.20;1783718;80;20880;-78
2021/10/07 02:04:09;;;;;;;8.05;3.00;;;;;;;0.49;73.92;101237.31;1783994;80;20880;-80
2021/10/07 02:06:36;;;;;;;9.23;3.17;;;;;;;0.49;74.09;101236.48;1784030;80;21451;-79
2021/10/07 02:09:06;;;;;;;8.08;4.30;;;;;;;0.50;74.11;101238.98;1783855;80;20931;-78
2021/10/07 02:11:34;;;;;;;16.15;3.70;;;;;;;0.50;74.04;101238.98;1783890;80;20959;-78
2021/10/07 02:14:00;;;;;;;8.23;3.52;;;;;;;0.50;74.01;101244.38;1783934;80;21066;-79
2021/10/07 02:16:28;;;;;;;12.03;3.60;;;;;;;0.48;74.13;101249.69;1784246;80;21459;-78
2021/10/07 02:18:55;;;;;;;9.45;3.52;;;;;;;0.48;74.35;101241.58;1783832;80;21773;-78
2021/10/07 02:21:21;;;;;;;17.20;3.62;;;;;;;0.47;74.33;101240.75;1784070;80;21503;-78
2021/10/07 02:23:48;;;;;;;12.80;4.42;;;;;;;0.47;74.47;101235.87;1783959;80;20919;-78
2021/10/07 02:26:15;;;;;;;6.80;3.33;;;;;;;0.45;74.66;101237.42;1784121;80;20968;-77
2021/10/07 02:28:42;;;;;;;15.48;3.90;;;;;;;0.43;74.61;101240.85;1784065;80;20892;-78
2021/10/07 02:31:08;;;;;;;11.53;3.92;;;;;;;0.43;74.76;101239.50;1784198;80;21146;-81
2021/10/07 02:33:36;;;;;;;8.20;4.10;;;;;;;0.41;74.98;101243.45;1783871;80;20904;-79
2021/10/07 02:36:04;;;;;;;6.97;3.60;;;;;;;0.40;75.15;101245.32;1784043;80;20856;-79
2021/10/07 02:38:30;;;;;;;11.85;3.50;;;;;;;0.40;75.25;101243.97;1783860;80;21070;-79
2021/10/07 02:40:57;;;;;;;12.88;4.05;;;;;;;0.40;75.37;101245.84;1783952;80;21467;-77
2021/10/07 02:43:23;;;;;;;14.90;4.50;;;;;;;0.39;75.44;101246.36;1784180;80;21461;-78
2021/10/07 02:45:50;;;;;;;10.63;5.40;;;;;;;0.39;75.59;101249.06;1783813;80;21265;-78
2021/10/07 02:48:17;;;;;;;8.35;3.33;;;;;;;0.39;75.70;101247.71;1783895;80;20915;-77
2021/10/07 02:50:45;;;;;;;16.32;3.98;;;;;;;0.38;75.77;101246.56;1783977;80;20860;-80
2021/10/07 02:53:11;;;;;;;16.95;3.92;;;;;;;0.36;75.88;101242.72;1784219;80;21027;-78
2021/10/07 02:55:38;;;;;;;9.10;3.75;;;;;;;0.36;76.05;101248.13;1783910;80;21495;-77
2021/10/07 02:58:04;;;;;;;11.63;4.30;;;;;;;0.37;76.17;101256.54;1784106;80;20927;-77
2021/10/07 03:00:31;;;;;;;10.03;4.17;;;;;;;0.35;76.20;101254.56;1783902;80;21019;-79
2021/10/07 03:02:57;;;;;;;10.23;5.20;;;;;;;0.33;76.34;101253.94;1793508;79;20931;-78
2021/10/07 03:05:25;;;;;;;13.53;4.70;;;;;;;0.30;76.55;101257.05;1767568;79;20875;-78
2021/10/07 03:07:51;;;;;;;15.90;4.53;;;;;;;0.27;77.10;101254.25;1798370;79;21118;-78
2021/10/07 03:10:20;;;;;;;12.43;4.60;;;;;;;0.28;77.07;101255.08;1767197;79;20844;-78
2021/10/07 03:12:48;;;;;;;21.87;4.95;;;;;;;0.27;77.40;101260.17;1797701;79;20909;-78
2021/10/07 03:15:15;;;;;;;11.33;4.37;;;;;;;0.25;77.59;101258.19;1797351;79;20860;-80
2021/10/07 03:17:42;;;;;;;18.60;4.12;;;;;;;0.22;77.70;101260.78;1797060;79;20891;-81
2021/10/07 03:20:11;;;;;;;15.05;4.90;;;;;;;0.21;78.00;101260.98;1796935;79;21509;-80
2021/10/07 03:22:38;;;;;;;10.93;4.92;;;;;;;0.19;78.24;101266.59;1796952;79;21363;-80
2021/10/07 03:25:05;;;;;;;12.93;4.80;;;;;;;0.18;78.41;101262.75;1796963;79;20912;-76
2021/10/07 03:27:32;;;;;;;9.28;4.03;;;;;;;0.14;78.55;101269.60;1790121;79;20971;-79
2021/10/07 03:29:59;;;;;;;6.83;3.98;;;;;;;0.11;78.71;101268.66;1796991;79;21097;-78
2021/10/07 03:32:25;;;;;;;19.12;4.72;;;;;;;0.07;78.90;101264.70;1797025;79;21601;-82
2021/10/07 03:34:52;;;;;;;13.38;4.70;;;;;;;0.04;79.21;101262.42;1797276;79;20867;-79
2021/10/07 03:37:18;;;;;;;14.85;5.33;;;;;;;0.00;79.42;101265.53;1796944;79;21470;-82
2021/10/07 03:39:44;;;;;;;14.38;5.20;;;;;;;-0.02;79.65;101267.63;1797174;79;20959;-77
2021/10/07 03:42:11;;;;;;;15.35;5.12;;;;;;;-0.03;79.84;101267.83;1796960;79;20923;-81
2021/10/07 03:44:38;;;;;;;11.40;4.97;;;;;;;-0.05;80.18;101272.09;1788969;78;21150;-82
2021/10/07 03:47:05;;;;;;;14.10;5.25;;;;;;;-0.07;80.39;101271.98;1775528;78;21430;-71
2021/10/07 03:49:32;;;;;;;9.93;5.12;;;;;;;-0.10;80.86;101270.52;1794278;79;20899;-77
2021/10/07 03:51:59;;;;;;;15.43;5.37;;;;;;;-0.11;81.14;101272.90;1797420;79;21407;-77
2021/10/07 03:54:25;;;;;;;11.43;5.20;;;;;;;-0.08;81.30;101273.02;1797346;79;20815;-71
2021/10/07 03:56:52;;;;;;;12.90;5.50;;;;;;;-0.07;81.24;101290.36;1797172;79;21083;-70
2021/10/07 03:59:18;;;;;;;14.03;5.67;;;;;;;-0.06;81.25;101283.09;1798008;79;20899;-70
2021/10/07 04:01:45;;;;;;;16.77;5.72;;;;;;;-0.08;81.19;101279.77;1797757;79;20870;-74
2021/10/07 04:04:12;;;;;;;16.97;5.47;;;;;;;-0.12;81.42;101280.69;1726341;82;21515;-77
2021/10/07 04:06:38;;;;;;;17.55;4.87;;;;;;;-0.16;81.43;101279.94;1747848;82;20951;-76
2021/10/07 04:09:04;;;;;;;11.03;5.58;;;;;;;-0.19;81.63;101277.65;1749153;81;21095;-75
2021/10/07 04:11:31;;;;;;;18.20;5.53;;;;;;;-0.20;81.96;101283.56;1780538;80;21517;-77
2021/10/07 04:13:57;;;;;;;10.70;5.12;;;;;;;-0.24;82.01;101282.30;1779886;80;20963;-76
2021/10/07 04:16:24;;;;;;;15.05;5.30;;;;;;;-0.26;82.10;101292.47;1780380;79;20978;-78
2021/10/07 04:18:50;;;;;;;18.75;5.62;;;;;;;-0.27;82.45;101288.11;1766341;80;21043;-78
2021/10/07 04:21:17;;;;;;;17.62;5.67;;;;;;;-0.28;82.53;101291.01;1781359;80;21019;-78
2021/10/07 04:23:44;;;;;;;13.72;5.35;;;;;;;-0.30;82.57;101289.86;1778508;80;20905;-73
2021/10/07 04:26:12;;;;;;;9.55;4.55;;;;;;;-0.30;82.78;101293.91;1776850;79;20972;-74
2021/10/07 04:28:38;;;;;;;10.08;4.20;;;;;;;-0.30;82.87;101290.38;1776572;80;20933;-74
2021/10/07 04:31:05;;;;;;;14.78;5.60;;;;;;;-0.29;82.83;101289.34;1776579;80;20932;-74
2021/10/07 04:33:32;;;;;;;18.77;6.33;;;;;;;-0.31;83.02;101289.55;1766032;80;21959;-75
2021/10/07 04:35:58;;;;;;;9.63;4.83;;;;;;;-0.31;83.12;101287.36;1776868;79;21384;-74
2021/10/07 04:38:25;;;;;;;15.50;5.20;;;;;;;-0.30;83.42;101294.42;1777187;80;20912;-74
2021/10/07 04:40:51;;;;;;;14.43;5.05;;;;;;;-0.30;83.56;101287.16;1776964;79;20956;-74
2021/10/07 04:43:18;;;;;;;15.75;5.40;;;;;;;-0.29;83.97;101292.88;1777091;80;20873;-74
2021/10/07 04:45:45;;;;;;;14.70;4.87;;;;;;;-0.27;84.13;101289.45;1777167;80;21710;-74
2021/10/07 04:48:12;;;;;;;16.87;4.83;;;;;;;-0.22;84.24;101290.20;1777087;79;21479;-74
2021/10/07 04:50:39;;;;;;;13.35;4.60;;;;;;;-0.18;84.26;101299.04;1776912;80;21388;-75
2021/10/07 04:53:06;;;;;;;9.18;4.90;;;;;;;-0.13;84.37;101298.44;1776044;80;21439;-76
2021/10/07 04:55:33;;;;;;;8.83;4.42;;;;;;;-0.08;84.36;101300.84;1782778;79;20990;-76
2021/10/07 04:57:59;;;;;;;11.55;4.60;;;;;;;-0.02;84.38;101295.14;1779252;80;21111;-75
2021/10/07 05:00:26;;;;;;;11.97;5.17;;;;;;;0.04;84.31;101302.41;1779363;80;20935;-74
2021/10/07 05:02:53;;;;;;;13.83;4.75;;;;;;;0.10;84.25;101298.89;1778162;80;20903;-74
2021/10/07 05:05:20;;;;;;;12.65;4.67;;;;;;;0.16;84.26;101298.06;1776875;80;21029;-74
2021/10/07 05:07:46;;;;;;;11.97;5.70;;;;;;;0.22;84.17;101304.00;1777077;80;20919;-75
2021/10/07 05:10:13;;;;;;;12.60;4.90;;;;;;;0.30;84.19;101305.68;1777264;80;21455;-75
2021/10/07 05:12:40;;;;;;;10.15;4.90;;;;;;;0.38;84.13;101299.25;1777471;80;20954;-75
2021/10/07 05:15:10;;;;;;;9.15;4.62;;;;;;;0.44;84.05;101310.06;1777113;80;20990;-75
2021/10/07 05:17:36;;;;;;;11.53;5.20;;;;;;;0.52;83.94;101308.52;1777439;80;20863;-75
2021/10/07 05:20:05;;;;;;;14.47;4.37;;;;;;;0.61;83.84;101309.11;1777017;80;20876;-75
2021/10/07 05:22:32;;;;;;;11.43;4.90;;;;;;;0.69;83.48;101311.61;1777555;80;21828;-74
2021/10/07 05:24:58;;;;;;;13.60;5.42;;;;;;;0.77;83.12;101308.70;1777286;80;21418;-74
2021/10/07 05:27:25;;;;;;;14.35;4.87;;;;;;;0.86;82.97;101310.67;1777370;80;21461;-75
2021/10/07 05:29:51;;;;;;;13.70;5.55;;;;;;;0.96;82.80;101318.67;1776983;80;20939;-75
2021/10/07 05:32:18;;;;;;;12.40;4.97;;;;;;;1.08;82.67;101316.69;1777409;80;20828;-74
2021/10/07 05:34:45;;;;;;;12.58;4.75;;;;;;;1.18;82.30;101327.36;1776988;80;21066;-75
2021/10/07 05:37:13;;;;;;;12.35;5.45;;;;;;;1.28;81.83;101325.05;1777272;80;20934;-75
2021/10/07 05:39:40;;;;;;;13.10;4.50;;;;;;;1.41;81.44;101326.06;1777392;80;20856;-75
2021/10/07 05:42:07;;;;;;;9.90;4.70;;;;;;;1.52;80.99;101321.35;1776984;80;20950;-75
2021/10/07 05:44:34;;;;;;;10.35;4.87;;;;;;;1.64;80.25;101325.06;1777255;80;21439;-74
2021/10/07 05:47:00;;;;;;;14.78;5.75;;;;;;;1.77;80.13;101326.86;1777093;80;21953;-75
2021/10/07 05:49:27;;;;;;;12.15;4.97;;;;;;;1.90;79.51;101330.34;1776892;80;21435;-75
2021/10/07 05:51:55;;;;;;;16.73;5.08;;;;;;;2.03;79.57;101330.81;1777116;80;21442;-75
2021/10/07 05:54:22;;;;;;;9.43;4.80;;;;;;;2.18;79.21;101338.13;1777126;80;20983;-75
2021/10/07 05:56:49;;;;;;;10.40;4.12;;;;;;;2.30;78.77;101340.98;1777421;80;20911;-75
2021/10/07 05:59:15;;;;;;;7.53;4.03;;;;;;;2.43;78.59;101341.39;1777222;80;21496;-74
2021/10/07 06:01:42;;;;;;;8.15;4.60;;;;;;;2.58;78.15;101333.26;1777007;80;20879;-75
2021/10/07 06:04:08;;;;;;;19.67;4.80;;;;;;;2.74;77.74;101345.45;1776878;80;21058;-75
2021/10/07 06:06:35;;;;;;;20.10;7.55;;;;;;;2.89;77.33;101350.52;1777235;80;20962;-75
2021/10/07 06:09:03;;;;;;;15.93;4.80;;;;;;;3.06;77.24;101348.09;1777212;80;20927;-74
2021/10/07 06:11:30;;;;;;;16.05;6.15;;;;;;;3.21;74.91;101348.58;1778468;80;21067;-75
2021/10/07 06:13:59;;;;;;;15.45;7.10;;;;;;;3.34;74.85;101351.69;1784927;80;20910;-74
2021/10/07 06:16:27;;;;;;;28.67;8.60;;;;;;;3.45;74.25;101345.52;1785545;80;21371;-75
2021/10/07 06:18:54;;;;;;;18.62;6.42;;;;;;;3.59;74.28;101355.16;1784276;80;21520;-74
2021/10/07 06:21:20;;;;;;;18.48;6.95;;;;;;;3.74;74.37;101350.19;1785137;80;21388;-74
2021/10/07 06:23:47;;;;;;;13.08;5.62;;;;;;;3.89;73.54;101351.98;1784734;80;21516;-76
2021/10/07 06:26:13;;;;;;;14.33;5.70;;;;;;;4.05;73.07;101351.04;1775923;80;20965;-75
2021/10/07 06:28:40;;;;;;;8.90;4.47;;;;;;;4.19;72.15;101348.45;1770441;80;20856;-75
2021/10/07 06:31:07;;;;;;;17.35;5.33;;;;;;;4.34;69.97;101348.87;1784841;80;20892;-76
2021/10/07 06:33:34;;;;;;;14.68;5.78;;;;;;;4.42;69.68;101347.19;1784688;80;21466;-76
2021/10/07 06:36:01;;;;;;;12.98;4.97;;;;;;;4.51;70.46;101351.23;1784706;80;21514;-73
2021/10/07 06:38:28;;;;;;;10.72;4.58;;;;;;;4.63;69.96;101349.34;1784875;80;20880;-79
2021/10/07 06:40:54;;;;;;;16.45;4.90;;;;;;;4.78;69.78;101348.08;1784775;80;21475;-78
2021/10/07 06:43:21;;;;;;;13.68;5.25;;;;;;;4.92;68.90;101348.17;1784750;80;21052;-78
2021/10/07 06:45:49;;;;;;;8.95;4.70;;;;;;;5.17;67.63;101351.52;1784393;80;21018;-77
2021/10/07 06:48:17;;;;;;;13.43;5.20;;;;;;;5.64;66.18;101359.11;1785029;80;21492;-78
2021/10/07 06:50:43;;;;;;;16.30;4.80;;;;;;;6.17;63.58;101361.30;1784795;80;20946;-78
2021/10/07 06:53:10;;;;;;;12.98;4.78;;;;;;;6.99;60.06;101357.57;1785060;80;20871;-76
2021/10/07 06:55:38;;;;;;;13.90;4.60;;;;;;;6.99;60.06;101357.57;1784841;80;20879;-77
2021/10/07 06:58:06;;;;;;;13.72;4.40;;;;;;;7.37;59.24;101355.98;1785000;80;21069;-78
2021/10/07 07:00:32;;;;;;;43.48;9.68;;;;;;;7.78;56.62;101354.09;1754091;80;21127;-78
2021/10/07 07:02:59;;;;;;;15.93;5.28;;;;;;;8.04;55.84;101350.31;1784138;79;20875;-78
2021/10/07 07:05:26;;;;;;;14.05;4.15;;;;;;;8.19;55.71;101355.94;1782363;80;20868;-79
2021/10/07 07:07:53;;;;;;;21.55;5.92;;;;;;;8.46;54.47;101346.42;1781912;80;20903;-78
2021/10/07 07:10:19;;;;;;;16.65;4.30;;;;;;;8.75;54.09;101355.17;1782206;80;21027;-78
2021/10/07 07:12:47;;;;;;;10.10;4.47;;;;;;;8.96;53.43;101352.07;1744616;80;21470;-79
2021/10/07 07:15:16;;;;;;;9.35;3.83;;;;;;;9.19;52.61;101349.80;1728836;82;21412;-78
2021/10/07 07:17:43;;;;;;;8.85;3.30;;;;;;;9.31;50.23;101346.84;1728567;83;20936;-74
2021/10/07 07:20:11;;;;;;;13.80;3.55;;;;;;;9.38;51.49;101356.20;1728836;81;20943;-79
2021/10/07 07:22:38;;;;;;;8.95;3.00;;;;;;;9.62;50.11;101349.23;1754900;79;21365;-83
2021/10/07 07:25:06;;;;;;;13.45;3.10;;;;;;;9.93;49.51;101355.13;1757906;80;21145;-83
2021/10/07 07:27:34;;;;;;;12.60;3.60;;;;;;;10.14;48.06;101356.59;1751716;80;20971;-80
2021/10/07 07:30:04;;;;;;;10.03;3.47;;;;;;;10.21;47.91;101355.28;1769845;80;21028;-81
2021/10/07 07:32:32;;;;;;;6.92;2.77;;;;;;;10.37;47.22;101348.46;1751536;82;21472;-80
2021/10/07 07:34:58;;;;;;;10.72;3.92;;;;;;;10.58;48.48;101355.08;1750256;81;20984;-73
2021/10/07 07:37:25;;;;;;;6.00;2.62;;;;;;;10.83;45.47;101354.84;1750874;82;21523;-76
2021/10/07 07:39:52;;;;;;;7.87;3.02;;;;;;;10.94;45.37;101349.63;1750987;81;21036;-74
2021/10/07 07:42:20;;;;;;;10.00;2.85;;;;;;;11.07;45.91;101353.17;1751141;82;20925;-77
2021/10/07 07:44:47;;;;;;;12.15;3.15;;;;;;;11.26;44.64;101353.44;1751274;82;21406;-76
2021/10/07 07:47:14;;;;;;;7.67;2.83;;;;;;;11.44;44.44;101355.62;1751277;82;20901;-74
2021/10/07 07:49:40;;;;;;;9.08;3.10;;;;;;;11.53;42.65;101349.01;1751276;82;21575;-76
2021/10/07 07:52:08;;;;;;;24.90;5.42;;;;;;;11.61;42.75;101345.66;1751033;82;20924;-75
2021/10/07 07:54:34;;;;;;;10.95;3.35;;;;;;;11.78;41.79;101348.12;1751305;81;21491;-76
2021/10/07 07:57:01;;;;;;;14.05;3.10;;;;;;;11.90;40.40;101342.58;1759327;80;21024;-74
2021/10/07 07:59:28;;;;;;;5.92;3.00;;;;;;;11.96;39.00;101338.42;1763038;80;20893;-73
2021/10/07 08:01:54;;;;;;;7.95;2.37;;;;;;;11.97;39.95;101342.27;1752142;80;21131;-72
2021/10/07 08:04:21;;;;;;;5.33;3.05;;;;;;;11.99;39.51;101323.55;1775560;80;21039;-74
2021/10/07 08:06:47;;;;;;;7.30;2.22;;;;;;;11.94;36.86;101347.52;1783405;80;20966;-73
2021/10/07 08:09:13;;;;;;;32.35;4.42;;;;;;;11.92;37.47;101346.42;1783712;80;21007;-72
2021/10/07 08:11:40;;;;;;;9.10;2.75;;;;;;;11.99;36.74;101342.81;1783037;79;21403;-73
2021/10/07 08:14:08;;;;;;;9.70;2.95;;;;;;;12.07;38.11;101345.54;1783559;79;21591;-76
2021/10/07 08:16:36;;;;;;;16.17;2.45;;;;;;;12.21;37.19;101343.80;1783394;79;20891;-76
2021/10/07 08:19:03;;;;;;;9.28;2.25;;;;;;;12.26;36.71;101342.39;1779943;79;20865;-74
2021/10/07 08:21:29;;;;;;;9.28;2.10;;;;;;;12.36;36.34;101346.47;1776458;79;20931;-75
2021/10/07 08:23:57;;;;;;;9.95;2.20;;;;;;;12.47;34.89;101345.30;1776708;80;21015;-74
2021/10/07 08:26:25;;;;;;;15.83;2.92;;;;;;;12.44;35.15;101336.78;1776736;79;20872;-74
2021/10/07 08:28:52;;;;;;;7.60;2.65;;;;;;;12.55;35.04;101337.82;1776987;79;20912;-75
2021/10/07 08:31:18;;;;;;;22.17;9.73;;;;;;;12.72;34.42;101339.33;1773188;79;20923;-78
2021/10/07 08:33:45;;;;;;;15.08;3.12;;;;;;;12.69;33.85;101328.91;1721432;82;20935;-74
2021/10/07 08:36:11;;;;;;;6.20;1.85;;;;;;;12.65;33.89;101326.46;1752272;81;22016;-74
2021/10/07 08:38:38;;;;;;;28.15;3.62;;;;;;;12.72;32.91;101329.13;1719441;83;21457;-74
2021/10/07 08:41:04;;;;;;;6.12;2.12;;;;;;;12.80;32.38;101328.52;1719777;83;20964;-74
2021/10/07 08:43:31;;;;;;;8.43;2.02;;;;;;;12.80;31.60;101322.19;1719285;83;21023;-76
2021/10/07 08:45:57;;;;;;;3.42;1.32;;;;;;;12.86;31.31;101319.11;1752708;81;21046;-79
2021/10/07 08:48:25;;;;;;;12.55;1.62;;;;;;;12.99;31.83;101320.38;1752952;81;20892;-73
2021/10/07 08:50:52;;;;;;;8.23;2.37;;;;;;;13.13;32.22;101317.22;1719665;83;21115;-72
2021/10/07 08:53:18;;;;;;;6.35;2.30;;;;;;;13.26;31.47;101321.27;1719541;83;20900;-73
2021/10/07 08:55:45;;;;;;;13.15;2.52;;;;;;;13.21;30.90;101316.62;1719921;83;20932;-74
2021/10/07 08:58:12;;;;;;;14.75;2.62;;;;;;;13.37;31.70;101320.03;1719710;82;20979;-75
2021/10/07 09:00:39;;;;;;;15.08;1.80;;;;;;;13.69;31.72;101314.45;1753329;81;20927;-69
2021/10/07 09:03:20;;;;;;;17.37;3.27;;;;;;;13.89;30.22;101307.28;1753298;81;21069;-72
2021/10/07 09:05:48;;;;;;;9.75;1.60;;;;;;;13.75;28.66;101314.66;1706513;83;20888;-70
2021/10/07 09:08:16;;;;;;;5.58;1.60;;;;;;;13.45;29.17;101322.71;1753439;80;21451;-69
2021/10/07 09:10:55;;;;;;;17.07;2.02;;;;;;;13.36;30.46;101315.63;1719635;83;37731;-69
2021/10/07 09:13:22;;;;;;;6.65;1.75;;;;;;;13.40;29.57;101325.52;1752958;81;20912;-71
2021/10/07 09:15:50;;;;;;;10.63;1.80;;;;;;;13.42;29.34;101315.84;1719706;83;21187;-70
2021/10/07 09:18:18;;;;;;;10.18;1.70;;;;;;;13.41;29.89;101316.95;1753267;81;20887;-71
2021/10/07 09:20:51;;;;;;;17.57;1.70;;;;;;;13.57;29.58;101312.66;1707136;83;20931;-74
2021/10/07 09:23:33;;;;;;;11.70;4.47;;;;;;;13.66;29.26;101303.44;1766877;79;20813;-71
2021/10/07 09:26:15;;;;;;;18.42;5.22;;;;;;;13.78;29.74;101307.17;1784048;80;20899;-73
2021/10/07 09:28:59;;;;;;;20.37;6.80;;;;;;;13.98;30.29;101312.97;1785162;80;21130;-75
2021/10/07 09:31:30;;;;;;;10.32;3.30;;;;;;;14.20;29.31;101308.53;1792384;80;21439;-73
2021/10/07 09:34:03;;;;;;;9.43;2.50;;;;;;;14.37;29.50;101305.26;1792077;80;21010;-76
2021/10/07 09:36:30;;;;;;;6.30;1.85;;;;;;;14.65;29.46;101309.55;1789188;79;20892;-74
2021/10/07 09:38:57;;;;;;;6.28;1.20;;;;;;;14.78;26.87;101306.84;1781945;80;20995;-73
2021/10/07 09:41:29;;;;;;;6.83;1.40;;;;;;;14.65;27.34;101308.98;1780454;79;21101;-75
2021/10/07 09:43:59;;;;;;;8.73;1.62;;;;;;;14.55;27.96;101303.61;1780745;80;21041;-75
2021/10/07 09:46:49;;;;;;;7.95;1.90;;;;;;;14.74;27.64;101297.52;1781639;80;20963;-75
2021/10/07 09:49:34;;;;;;;11.20;2.20;;;;;;;14.76;28.77;101297.21;1775731;80;20975;-74
2021/10/07 09:52:04;;;;;;;13.60;2.12;;;;;;;14.84;28.79;101300.67;1783569;80;20955;-74
2021/10/07 09:54:37;;;;;;;7.22;2.30;;;;;;;14.79;28.31;101300.19;1783811;80;22010;-74
2021/10/07 09:57:05;;;;;;;4.72;2.22;;;;;;;14.78;27.24;101297.73;1783893;80;20927;-74
2021/10/07 09:59:33;;;;;;;15.28;2.10;;;;;;;14.78;26.11;101295.78;1782796;80;20943;-76
2021/10/07 10:02:00;;;;;;;6.75;2.85;;;;;;;14.64;27.41;101295.47;1783771;80;20888;-74
2021/10/07 10:04:28;;;;;;;4.25;1.17;;;;;;;14.59;27.56;101292.78;1783600;80;20919;-74
2021/10/07 10:06:54;;;;;;;12.37;2.45;;;;;;;14.54;26.64;101299.20;1783477;79;21135;-74
2021/10/07 10:09:23;;;;;;;14.13;3.40;;;;;;;14.31;28.42;101299.55;1783411;80;21006;-73
2021/10/07 10:11:49;;;;;;;5.00;2.22;;;;;;;14.39;29.47;101304.40;1783540;80;20903;-73
2021/10/07 10:14:19;;;;;;;15.28;2.20;;;;;;;14.61;29.63;101296.89;1783714;80;20935;-73
2021/10/07 10:16:47;;;;;;;10.98;2.30;;;;;;;14.85;29.20;101289.88;1783672;80;20929;-73
2021/10/07 10:19:13;;;;;;;8.95;2.20;;;;;;;15.09;29.97;101282.23;1746206;80;21119;-73
2021/10/07 10:21:40;;;;;;;6.50;1.70;;;;;;;15.39;29.04;101273.12;1783678;80;20907;-73
2021/10/07 10:24:08;;;;;;;4.17;1.80;;;;;;;15.30;27.07;101283.25;1752981;80;20888;-74
2021/10/07 10:26:39;;;;;;;4.20;1.62;;;;;;;15.12;27.47;101270.56;1783884;80;20928;-73
2021/10/07 10:29:22;;;;;;;6.87;1.90;;;;;;;15.03;28.93;101273.77;1783649;80;21474;-73
2021/10/07 10:31:53;;;;;;;9.63;1.77;;;;;;;15.30;30.42;101277.72;1783953;80;21751;-74
2021/10/07 10:34:21;;;;;;;6.37;2.37;;;;;;;15.57;28.79;101269.47;1783564;80;21403;-73
2021/10/07 10:36:53;;;;;;;7.30;3.25;;;;;;;15.61;28.78;101264.93;1783887;80;20848;-74
2021/10/07 10:39:27;;;;;;;9.20;2.75;;;;;;;15.63;28.39;101267.39;1783803;80;20939;-74
2021/10/07 10:42:13;;;;;;;10.63;2.30;;;;;;;15.38;27.71;101265.38;1783939;80;21493;-75
2021/10/07 10:44:51;;;;;;;5.03;1.60;;;;;;;15.06;28.63;101272.34;1758576;80;21123;-74
2021/10/07 10:47:27;;;;;;;9.45;2.10;;;;;;;14.97;30.16;101270.04;1783860;80;20987;-75
2021/10/07 10:50:02;;;;;;;6.33;2.12;;;;;;;15.07;29.77;101260.16;1753127;80;20920;-75
2021/10/07 10:52:37;;;;;;;4.58;1.87;;;;;;;15.08;30.47;101264.56;1778471;80;20888;-75
2021/10/07 10:55:18;;;;;;;19.67;2.45;;;;;;;15.19;31.22;101264.07;1783737;80;20932;-75
2021/10/07 10:57:50;;;;;;;6.37;1.90;;;;;;;15.43;30.34;101268.61;1784120;80;21132;-76
2021/10/07 11:00:36;;;;;;;7.62;2.50;;;;;;;15.57;29.39;101265.32;1753861;80;20844;-75
2021/10/07 11:03:14;;;;;;;15.68;3.22;;;;;;;15.60;28.24;101265.27;1759943;81;20976;-75
2021/10/07 11:06:04;;;;;;;9.25;3.65;;;;;;;15.42;29.06;101260.05;1775849;80;21003;-73
2021/10/07 11:08:47;;;;;;;5.62;1.60;;;;;;;15.39;29.16;101269.78;1776129;80;21029;-74
2021/10/07 11:11:29;;;;;;;5.33;1.77;;;;;;;15.06;27.68;101257.13;1780129;80;21168;-73
2021/10/07 11:13:57;;;;;;;9.03;2.30;;;;;;;14.88;30.92;101256.09;1780279;80;20986;-74
2021/10/07 11:16:25;;;;;;;8.30;2.50;;;;;;;15.21;29.78;101256.85;1749466;80;20964;-73
2021/10/07 11:18:52;;;;;;;5.33;1.92;;;;;;;15.34;29.94;101260.77;1780202;80;21430;-74
2021/10/07 11:21:22;;;;;;;11.03;2.58;;;;;;;15.26;27.71;101254.55;1780089;80;21417;-75
2021/10/07 11:23:52;;;;;;;15.23;3.20;;;;;;;15.01;29.14;101265.55;1780206;80;21130;-74
2021/10/07 11:26:31;;;;;;;9.53;2.10;;;;;;;14.91;28.56;101258.81;1767895;80;20849;-74
2021/10/07 11:28:58;;;;;;;9.85;2.08;;;;;;;14.98;28.86;101254.53;1777767;80;20914;-73
2021/10/07 11:31:28;;;;;;;9.95;3.77;;;;;;;14.99;28.20;101256.73;1760755;80;20956;-71